createdAt,value
2022-12-25T00:02:07.427Z,7.81
2022-12-25T00:06:19.570Z,8.03
2022-12-25T00:10:31.268Z,8.07
2022-12-25T00:14:42.997Z,8.32
2022-12-25T00:18:56.650Z,8.21
2022-12-25T00:23:08.360Z,8.39
2022-12-25T00:27:20.100Z,8.43
2022-12-25T00:31:31.942Z,8.27
2022-12-25T00:35:44.043Z,8.48
2022-12-25T00:39:55.728Z,8.57
2022-12-25T00:44:08.797Z,8.47
2022-12-25T00:48:20.510Z,8.59
2022-12-25T00:52:35.625Z,8.59
2022-12-25T00:56:47.609Z,8.61
2022-12-25T01:01:00.664Z,8.69
2022-12-25T01:05:12.321Z,8.65
2022-12-25T01:09:56.244Z,8.69
2022-12-25T01:14:08.274Z,8.82
2022-12-25T01:18:21.656Z,8.62
2022-12-25T01:22:33.369Z,8.84
2022-12-25T01:26:45.037Z,8.94
2022-12-25T01:30:56.811Z,8.98
2022-12-25T01:35:08.879Z,8.92
2022-12-25T01:39:20.589Z,9.04
2022-12-25T01:43:34.234Z,8.99
2022-12-25T01:47:46.123Z,9.12
2022-12-25T01:52:03.221Z,9.00
2022-12-25T01:56:15.033Z,8.91
2022-12-25T02:00:26.735Z,9.21
2022-12-25T02:05:01.375Z,9.24
2022-12-25T02:09:13.564Z,9.25
2022-12-25T02:13:25.351Z,9.24
2022-12-25T02:17:53.725Z,9.31
2022-12-25T02:22:42.450Z,9.34
2022-12-25T02:27:02.764Z,9.28
2022-12-25T02:31:26.117Z,9.18
2022-12-25T02:35:38.081Z,9.24
2022-12-25T02:40:00.519Z,9.18
2022-12-25T02:44:37.904Z,9.18
2022-12-25T02:49:16.253Z,9.02
2022-12-25T02:53:47.682Z,9.12
2022-12-25T02:58:23.949Z,9.05
2022-12-25T03:02:55.736Z,9.11
2022-12-25T03:07:12.337Z,9.11
2022-12-25T03:11:33.216Z,9.15
2022-12-25T03:16:04.976Z,8.94
2022-12-25T03:20:35.276Z,9.21
2022-12-25T03:25:07.026Z,9.24
2022-12-25T03:29:37.200Z,9.12
2022-12-25T03:34:29.860Z,9.32
2022-12-25T03:39:23.075Z,9.25
2022-12-25T03:44:35.388Z,9.27
2022-12-25T03:49:11.056Z,9.25
2022-12-25T03:54:21.448Z,9.30
2022-12-25T03:58:51.853Z,9.26
2022-12-25T04:03:22.449Z,9.30
2022-12-25T04:07:52.642Z,9.34
2022-12-25T04:12:23.440Z,9.29
2022-12-25T04:16:53.631Z,9.35
2022-12-25T04:21:23.777Z,9.35
2022-12-25T04:25:54.038Z,9.30
2022-12-25T04:30:24.915Z,9.35
2022-12-25T04:34:55.209Z,9.36
2022-12-25T04:39:07.023Z,9.37
2022-12-25T04:43:18.660Z,9.44
2022-12-25T04:47:30.512Z,9.41
2022-12-25T04:51:42.212Z,9.48
2022-12-25T04:56:01.527Z,9.46
2022-12-25T05:00:13.624Z,9.42
2022-12-25T05:04:25.328Z,9.32
2022-12-25T05:08:37.122Z,9.30
2022-12-25T05:12:48.858Z,9.06
2022-12-25T05:17:00.619Z,9.06
2022-12-25T05:21:12.945Z,9.00
2022-12-25T05:25:24.758Z,8.94
2022-12-25T05:29:36.534Z,8.85
2022-12-25T05:33:52.358Z,8.70
2022-12-25T05:38:05.064Z,8.73
2022-12-25T05:42:16.876Z,8.62
2022-12-25T05:46:28.636Z,8.69
2022-12-25T05:50:40.788Z,8.62
2022-12-25T05:54:52.578Z,8.56
2022-12-25T05:59:04.442Z,8.37
2022-12-25T06:03:18.949Z,8.48
2022-12-25T06:07:30.880Z,8.32
2022-12-25T06:11:42.520Z,8.42
2022-12-25T06:15:57.319Z,8.26
2022-12-25T06:20:09.743Z,8.44
2022-12-25T06:24:22.668Z,8.48
2022-12-25T06:28:34.825Z,8.53
2022-12-25T06:32:46.522Z,8.45
2022-12-25T06:37:00.616Z,8.57
2022-12-25T06:41:15.296Z,8.64
2022-12-25T06:45:27.333Z,8.61
2022-12-25T06:49:39.127Z,8.65
2022-12-25T06:53:52.386Z,8.73
2022-12-25T06:58:04.229Z,8.71
2022-12-25T07:02:21.808Z,8.71
2022-12-25T07:06:34.149Z,8.75
2022-12-25T07:10:45.818Z,8.77
2022-12-25T07:14:57.500Z,8.77
2022-12-25T07:19:11.496Z,8.72
2022-12-25T07:23:25.691Z,8.90
2022-12-25T07:27:37.589Z,8.88
2022-12-25T07:31:51.755Z,8.85
2022-12-25T07:36:03.896Z,8.95
2022-12-25T07:40:15.657Z,9.01
2022-12-25T07:44:27.420Z,9.10
2022-12-25T07:48:39.254Z,9.07
2022-12-25T07:52:51.582Z,9.12
2022-12-25T07:57:03.422Z,9.12
2022-12-25T08:01:19.436Z,9.11
2022-12-25T08:05:32.828Z,9.17
2022-12-25T08:09:44.727Z,9.18
2022-12-25T08:13:56.696Z,9.12
2022-12-25T08:18:08.553Z,9.20
2022-12-25T08:22:20.236Z,9.35
2022-12-25T08:26:32.041Z,9.27
2022-12-25T08:30:43.865Z,9.27
2022-12-25T08:34:55.748Z,9.24
2022-12-25T08:39:08.323Z,9.36
2022-12-25T08:43:20.077Z,9.24
2022-12-25T08:47:31.917Z,9.31
2022-12-25T08:51:44.813Z,9.49
2022-12-25T08:56:01.120Z,9.43
2022-12-25T09:00:13.340Z,9.49
2022-12-25T09:04:27.289Z,9.50
2022-12-25T09:08:44.193Z,9.60
2022-12-25T09:13:00.225Z,9.64
2022-12-25T09:17:12.086Z,9.61
2022-12-25T09:21:23.887Z,9.53
2022-12-25T09:25:35.615Z,9.55
2022-12-25T09:29:50.346Z,9.60
2022-12-25T09:34:03.174Z,9.74
2022-12-25T09:38:14.904Z,9.69
2022-12-25T09:42:31.421Z,9.67
2022-12-25T09:46:55.380Z,9.76
2022-12-25T09:51:13.177Z,9.68
2022-12-25T09:55:26.736Z,9.76
2022-12-25T09:59:47.475Z,9.78
2022-12-25T10:04:29.581Z,9.87
2022-12-25T10:09:09.761Z,9.86
2022-12-25T10:13:48.722Z,9.97
2022-12-25T10:18:41.677Z,10.01
2022-12-25T10:22:58.804Z,10.01
2022-12-25T10:27:20.566Z,10.06
2022-12-25T10:31:36.818Z,10.00
2022-12-25T10:35:51.624Z,9.92
2022-12-25T10:40:18.103Z,9.90
2022-12-25T10:44:30.340Z,9.97
2022-12-25T10:48:47.548Z,9.90
2022-12-25T10:53:09.353Z,9.90
2022-12-25T10:57:23.379Z,9.85
2022-12-25T11:01:35.388Z,9.97
2022-12-25T11:05:51.486Z,10.01
2022-12-25T11:10:26.223Z,10.00
2022-12-25T11:14:37.960Z,9.95
2022-12-25T11:18:52.548Z,9.90
2022-12-25T11:23:10.414Z,10.01
2022-12-25T11:27:33.552Z,9.94
2022-12-25T11:31:46.479Z,9.88
2022-12-25T11:36:01.123Z,9.77
2022-12-25T11:40:20.013Z,9.82
2022-12-25T11:44:56.796Z,9.79
2022-12-25T11:49:16.325Z,9.70
2022-12-25T11:53:30.962Z,9.84
2022-12-25T11:57:46.821Z,9.84
2022-12-25T12:02:10.080Z,9.82
2022-12-25T12:06:43.708Z,9.79
2022-12-25T12:11:18.718Z,9.96
2022-12-25T12:15:41.262Z,9.85
2022-12-25T12:19:52.946Z,9.99
2022-12-25T12:24:11.763Z,10.00
2022-12-25T12:28:27.800Z,10.05
2022-12-25T12:32:44.254Z,10.19
2022-12-25T12:37:05.411Z,10.17
2022-12-25T12:41:18.172Z,10.17
2022-12-25T12:45:40.296Z,10.22
2022-12-25T12:49:58.737Z,10.19
2022-12-25T12:54:25.430Z,10.24
2022-12-25T12:58:45.093Z,10.22
2022-12-25T13:03:26.495Z,10.20
2022-12-25T13:07:59.374Z,10.28
2022-12-25T13:12:12.884Z,10.23
2022-12-25T13:16:36.890Z,10.28
2022-12-25T13:20:56.492Z,10.41
2022-12-25T13:25:20.951Z,10.42
2022-12-25T13:29:37.079Z,10.48
2022-12-25T13:34:03.569Z,10.46
2022-12-25T13:38:18.185Z,10.35
2022-12-25T13:42:39.972Z,10.34
2022-12-25T13:46:51.964Z,10.34
2022-12-25T13:51:03.708Z,10.30
2022-12-25T13:55:23.846Z,10.34
2022-12-25T13:59:37.713Z,10.33
2022-12-25T14:03:49.441Z,10.35
2022-12-25T14:08:04.956Z,10.29
2022-12-25T14:12:19.429Z,10.37
2022-12-25T14:16:31.487Z,10.33
2022-12-25T14:20:55.429Z,10.31
2022-12-25T14:25:15.025Z,10.37
2022-12-25T14:29:32.466Z,10.28
2022-12-25T14:33:45.601Z,10.36
2022-12-25T14:38:02.660Z,10.38
2022-12-25T14:42:26.245Z,10.35
2022-12-25T14:46:38.053Z,10.36
2022-12-25T14:51:15.952Z,10.39
2022-12-25T14:55:29.819Z,10.45
2022-12-25T14:59:41.538Z,10.39
2022-12-25T15:04:07.301Z,10.45
2022-12-25T15:08:22.857Z,10.47
2022-12-25T15:12:34.466Z,10.47
2022-12-25T15:16:50.248Z,10.50
2022-12-25T15:21:02.599Z,10.47
2022-12-25T15:25:17.107Z,10.44
2022-12-25T15:30:07.809Z,10.54
2022-12-25T15:34:05.410Z,10.49
2022-12-25T15:38:17.008Z,10.48
2022-12-25T15:42:28.593Z,10.48
2022-12-25T15:46:40.209Z,10.54
2022-12-25T15:50:51.893Z,10.50
2022-12-25T15:55:03.717Z,10.49
2022-12-25T15:59:17.042Z,10.48
2022-12-25T16:03:29.169Z,10.49
2022-12-25T16:07:40.952Z,10.46
2022-12-25T16:11:52.549Z,10.46
2022-12-25T16:16:05.030Z,10.44
2022-12-25T16:20:16.747Z,10.34
2022-12-25T16:24:28.391Z,10.28
2022-12-25T16:28:40.012Z,10.09
2022-12-25T16:32:51.844Z,10.13
2022-12-25T16:37:04.334Z,10.10
2022-12-25T16:41:16.339Z,10.10
2022-12-25T16:45:28.203Z,10.07
2022-12-25T16:49:39.993Z,10.06
2022-12-25T16:53:53.230Z,10.05
2022-12-25T16:58:06.158Z,10.12
2022-12-25T17:02:19.785Z,10.06
2022-12-25T17:06:31.537Z,10.10
2022-12-25T17:10:43.160Z,10.20
2022-12-25T17:14:54.793Z,10.19
2022-12-25T17:19:12.844Z,10.23
2022-12-25T17:23:24.565Z,10.23
2022-12-25T17:27:36.246Z,10.38
2022-12-25T17:31:48.269Z,10.47
2022-12-25T17:36:04.446Z,10.45
2022-12-25T17:40:16.042Z,10.48
2022-12-25T17:44:27.643Z,10.51
2022-12-25T17:48:39.266Z,10.52
2022-12-25T17:52:52.499Z,10.54
2022-12-25T17:57:04.159Z,10.51
2022-12-25T18:01:16.633Z,10.56
2022-12-25T18:05:28.539Z,10.50
2022-12-25T18:09:40.196Z,10.50
2022-12-25T18:13:53.552Z,10.56
2022-12-25T18:18:05.827Z,10.50
2022-12-25T18:22:17.454Z,10.48
2022-12-25T18:26:29.090Z,10.46
2022-12-25T18:30:42.248Z,10.44
2022-12-25T18:34:54.973Z,10.44
2022-12-25T18:39:06.639Z,10.38
2022-12-25T18:43:18.360Z,10.46
2022-12-25T18:47:30.058Z,10.45
2022-12-25T18:51:41.779Z,10.52
2022-12-25T18:56:15.265Z,10.56
2022-12-25T19:00:28.152Z,10.50
2022-12-25T19:04:40.201Z,10.54
2022-12-25T19:08:52.381Z,10.51
2022-12-25T19:13:04.145Z,10.46
2022-12-25T19:17:17.518Z,10.39
2022-12-25T19:21:29.450Z,10.54
2022-12-25T19:25:41.124Z,10.33
2022-12-25T19:29:52.796Z,10.44
2022-12-25T19:34:29.314Z,10.54
2022-12-25T19:38:41.875Z,10.41
2022-12-25T19:42:53.737Z,10.29
2022-12-25T19:47:05.655Z,10.37
2022-12-25T19:51:23.179Z,10.32
2022-12-25T19:55:34.802Z,10.29
2022-12-25T19:59:46.429Z,10.30
2022-12-25T20:03:58.029Z,10.33
2022-12-25T20:08:10.484Z,10.32
2022-12-25T20:12:22.160Z,10.36
2022-12-25T20:16:37.798Z,10.34
2022-12-25T20:20:49.576Z,10.31
2022-12-25T20:25:01.364Z,10.27
2022-12-25T20:29:13.071Z,10.31
2022-12-25T20:33:25.152Z,10.26
2022-12-25T20:37:36.813Z,10.35
2022-12-25T20:41:48.462Z,10.36
2022-12-25T20:46:00.172Z,10.28
2022-12-25T20:50:11.823Z,10.40
2022-12-25T20:54:23.510Z,10.38
2022-12-25T20:58:35.317Z,10.32
2022-12-25T21:02:47.081Z,10.34
2022-12-25T21:06:58.791Z,10.35
2022-12-25T21:11:11.495Z,10.32
2022-12-25T21:15:24.643Z,10.26
2022-12-25T21:19:36.454Z,10.28
2022-12-25T21:23:48.346Z,10.30
2022-12-25T21:27:59.979Z,10.30
2022-12-25T21:32:30.252Z,10.26
2022-12-25T21:36:41.850Z,10.23
2022-12-25T21:40:53.514Z,10.35
2022-12-25T21:45:05.460Z,10.26
2022-12-25T21:49:36.990Z,10.29
2022-12-25T21:53:48.575Z,10.27
2022-12-25T21:58:00.521Z,10.26
2022-12-25T22:02:12.354Z,10.26
2022-12-25T22:06:42.650Z,10.25
2022-12-25T22:10:54.261Z,10.25
2022-12-25T22:15:09.500Z,10.25
2022-12-25T22:19:39.717Z,10.26
2022-12-25T22:23:51.360Z,10.21
2022-12-25T22:28:03.007Z,10.29
2022-12-25T22:32:16.161Z,10.19
2022-12-25T22:36:27.857Z,10.21
2022-12-25T22:40:39.518Z,10.21
2022-12-25T22:44:51.352Z,10.21
2022-12-25T22:49:03.172Z,10.12
2022-12-25T22:53:14.946Z,10.22
2022-12-25T22:57:26.629Z,10.19
2022-12-25T23:01:38.789Z,10.18
2022-12-25T23:05:55.297Z,10.20
2022-12-25T23:10:07.590Z,10.25
2022-12-25T23:14:37.843Z,10.23
2022-12-25T23:19:08.014Z,10.25
2022-12-25T23:23:38.381Z,10.28
2022-12-25T23:27:50.055Z,10.28
2022-12-25T23:32:04.088Z,10.29
2022-12-25T23:36:15.770Z,10.31
2022-12-25T23:40:27.404Z,10.23
2022-12-25T23:44:38.975Z,10.31
2022-12-25T23:48:50.629Z,10.32
2022-12-25T23:53:02.213Z,10.24
2022-12-25T23:57:13.780Z,10.20
